Time;durP1;ratioP1;P1;durP2;ratioP2;P2;SDS_P1;SDS_P2;PMS_P1;PMS_P2;Temp;Humidity;BMP_temperature;BMP_pressure;BME280_temperature;BME280_humidity;BME280_pressure;Samples;Min_cycle;Max_cycle;Signal;HPM_P1;HPM_P2
2022/05/12 00:01:54;;;;;;;15.05;3.28;;;;;;;10.66;100.00;101386.38;10527625;28;20036;-79
2022/05/12 00:06:58;;;;;;;3.20;2.65;;;;;;;10.61;100.00;101399.63;10510619;28;20028;-76
2022/05/12 00:11:59;;;;;;;17.60;2.72;;;;;;;10.54;100.00;101409.50;10528405;28;20064;-76
2022/05/12 00:17:01;;;;;;;4.40;2.45;;;;;;;10.53;100.00;101413.22;10510174;28;20032;-76
2022/05/12 00:22:02;;;;;;;4.68;2.58;;;;;;;10.58;100.00;101410.81;10512112;28;20028;-76
2022/05/12 00:27:03;;;;;;;3.65;1.77;;;;;;;10.55;100.00;101428.25;10526791;28;20032;-76
2022/05/12 00:32:07;;;;;;;9.75;2.85;;;;;;;10.50;100.00;101436.13;10509285;28;20048;-76
2022/05/12 00:37:08;;;;;;;8.68;3.33;;;;;;;10.45;100.00;101433.94;10526220;28;20039;-76
2022/05/12 00:42:09;;;;;;;14.82;2.67;;;;;;;10.42;100.00;101439.72;10509605;28;20032;-76
2022/05/12 00:47:10;;;;;;;11.43;2.13;;;;;;;10.42;100.00;101441.59;10510226;28;20135;-76
2022/05/12 00:52:23;;;;;;;7.68;3.17;;;;;;;10.41;100.00;101438.06;10510761;28;20523;-76
2022/05/12 00:57:36;;;;;;;4.68;3.17;;;;;;;10.40;100.00;101436.38;10509128;28;20467;-76
2022/05/12 01:02:37;;;;;;;7.90;2.85;;;;;;;10.38;100.00;101433.00;10507556;28;20032;-76
2022/05/12 01:07:37;;;;;;;4.30;2.40;;;;;;;10.32;100.00;101444.56;10524921;28;20201;-76
2022/05/12 01:12:38;;;;;;;4.68;3.42;;;;;;;10.27;100.00;101446.13;10524927;28;20391;-76
2022/05/12 01:17:39;;;;;;;12.55;4.18;;;;;;;10.28;100.00;101448.66;10524265;28;20028;-76
2022/05/12 01:22:48;;;;;;;5.63;3.45;;;;;;;10.25;100.00;101449.84;10508546;28;20390;-76
2022/05/12 01:27:49;;;;;;;10.32;4.40;;;;;;;10.26;100.00;101461.53;10546193;28;20107;-76
2022/05/12 01:32:50;;;;;;;4.53;4.18;;;;;;;10.24;100.00;101458.13;10523168;28;20044;-75
2022/05/12 01:37:51;;;;;;;4.57;4.10;;;;;;;10.30;100.00;101465.56;10541448;28;20071;-75
2022/05/12 01:42:53;;;;;;;6.60;4.60;;;;;;;10.33;100.00;101478.72;10503060;28;20038;-77
2022/05/12 01:47:53;;;;;;;13.32;5.30;;;;;;;10.42;100.00;101474.94;10528868;28;20048;-76
2022/05/12 01:52:54;;;;;;;15.55;5.10;;;;;;;10.43;100.00;101482.03;10526452;28;20036;-76
2022/05/12 01:57:57;;;;;;;4.88;4.40;;;;;;;10.47;100.00;101483.34;10505781;28;20040;-76
2022/05/12 02:03:00;;;;;;;5.25;4.05;;;;;;;10.51;100.00;101491.94;10508819;28;20024;-76
2022/05/12 02:08:01;;;;;;;5.65;4.18;;;;;;;10.57;100.00;101503.94;10528970;28;20024;-76
2022/05/12 02:13:02;;;;;;;6.55;4.88;;;;;;;10.57;100.00;101504.75;10531091;28;20036;-77
2022/05/12 02:18:05;;;;;;;8.80;4.90;;;;;;;10.58;100.00;101497.47;10510062;28;20051;-76
2022/05/12 02:23:06;;;;;;;14.98;6.28;;;;;;;10.59;100.00;101516.28;10524586;28;20032;-75
2022/05/12 02:28:08;;;;;;;10.00;4.57;;;;;;;10.52;100.00;101520.69;10523910;28;20040;-76
2022/05/12 02:33:09;;;;;;;4.85;4.00;;;;;;;10.52;100.00;101526.13;10522429;28;20379;-76
2022/05/12 02:38:10;;;;;;;16.23;5.32;;;;;;;10.50;100.00;101541.72;10505375;28;20039;-76
2022/05/12 02:43:25;;;;;;;11.32;5.70;;;;;;;10.46;100.00;101538.53;10504774;28;20472;-76
2022/05/12 02:48:28;;;;;;;13.35;4.85;;;;;;;10.41;100.00;101542.81;10525869;28;20060;-76
2022/05/12 02:53:29;;;;;;;8.07;4.72;;;;;;;10.38;100.00;101546.72;10523662;28;20039;-76
2022/05/12 02:58:30;;;;;;;9.75;4.13;;;;;;;10.35;100.00;101559.78;10506174;28;20031;-76
2022/05/12 03:03:30;;;;;;;14.80;4.90;;;;;;;10.27;100.00;101562.53;10522835;28;20075;-76
2022/05/12 03:08:31;;;;;;;17.85;4.82;;;;;;;10.20;100.00;101560.50;10521042;28;20387;-75
2022/05/12 03:13:32;;;;;;;9.63;4.93;;;;;;;10.17;100.00;101568.13;10522058;28;20119;-76
2022/05/12 03:18:32;;;;;;;5.38;4.88;;;;;;;10.10;100.00;101569.88;10521351;28;20471;-75
2022/05/12 03:23:34;;;;;;;6.78;4.68;;;;;;;10.05;100.00;101583.09;10521346;28;20036;-76
2022/05/12 03:28:35;;;;;;;12.55;6.57;;;;;;;9.98;100.00;101581.09;10509969;28;20369;-76
2022/05/12 03:33:36;;;;;;;8.93;4.93;;;;;;;9.95;100.00;101597.66;10545998;28;20352;-76
2022/05/12 03:38:37;;;;;;;10.07;4.88;;;;;;;9.89;100.00;101606.53;10545588;28;20032;-75
2022/05/12 03:48:58;;;;;;;7.28;4.65;;;;;;;9.87;100.00;101622.06;10544684;28;20052;-75
2022/05/12 03:53:59;;;;;;;20.58;5.78;;;;;;;9.83;100.00;101622.59;10527714;28;20127;-75
2022/05/12 03:58:59;;;;;;;9.50;5.78;;;;;;;9.77;100.00;101622.28;10544090;28;20115;-75
2022/05/12 04:04:00;;;;;;;8.38;4.85;;;;;;;9.74;100.00;101619.09;10527380;28;20507;-75
2022/05/12 04:09:00;;;;;;;6.95;5.28;;;;;;;9.73;100.00;101634.47;10527826;28;20134;-75
2022/05/12 04:14:01;;;;;;;11.05;5.47;;;;;;;9.74;100.00;101633.44;10527115;28;20480;-76
2022/05/12 04:19:03;;;;;;;17.77;5.85;;;;;;;9.79;100.00;101632.91;10543858;28;20047;-76
2022/05/12 04:24:05;;;;;;;12.35;5.00;;;;;;;9.82;100.00;101637.97;10511810;28;20032;-75
2022/05/12 04:29:07;;;;;;;8.98;5.00;;;;;;;9.87;100.00;101649.13;10509890;28;20031;-75
2022/05/12 04:39:26;;;;;;;8.43;5.57;;;;;;;10.07;100.00;101662.25;10542383;28;20036;-75
2022/05/12 04:44:27;;;;;;;9.30;4.65;;;;;;;10.13;100.00;101672.38;10544268;28;20115;-75
2022/05/12 04:49:28;;;;;;;8.45;4.32;;;;;;;10.16;100.00;101682.84;10544289;28;20471;-75
2022/05/12 04:54:29;;;;;;;8.27;5.30;;;;;;;10.27;100.00;101682.47;10543914;28;20040;-76
2022/05/12 04:59:29;;;;;;;6.88;5.20;;;;;;;10.37;100.00;101687.66;10528369;28;20032;-76
2022/05/12 05:04:30;;;;;;;5.43;4.85;;;;;;;11.67;100.00;101693.97;10548586;28;20024;-76
2022/05/12 05:09:30;;;;;;;15.10;4.53;;;;;;;12.77;100.00;101696.69;10526882;28;20103;-76
2022/05/12 05:14:31;;;;;;;5.32;4.68;;;;;;;13.59;100.00;101691.81;10542589;28;20032;-76
2022/05/12 05:19:31;;;;;;;14.77;4.57;;;;;;;14.21;100.00;101710.00;10523963;28;20039;-76
2022/05/12 05:24:32;;;;;;;11.77;3.67;;;;;;;14.50;100.00;101697.97;10524829;28;20114;-76
2022/05/12 05:29:32;;;;;;;7.78;2.78;;;;;;;14.92;100.00;101701.50;10542701;28;20063;-76
2022/05/12 05:34:33;;;;;;;3.83;2.63;;;;;;;15.30;100.00;101714.56;10524329;28;20444;-76
2022/05/12 05:39:33;;;;;;;4.28;3.00;;;;;;;15.69;100.00;101715.63;10523721;28;20032;-76
2022/05/12 05:44:34;;;;;;;3.35;2.63;;;;;;;16.12;100.00;101728.81;10524118;28;20040;-76
2022/05/12 05:49:35;;;;;;;4.60;2.38;;;;;;;16.28;100.00;101751.03;10533585;28;20056;-77
2022/05/12 05:54:35;;;;;;;11.52;2.60;;;;;;;16.52;100.00;101754.94;10535899;28;20423;-77
2022/05/12 05:59:36;;;;;;;2.90;2.53;;;;;;;16.89;100.00;101762.59;10552064;28;20062;-77
2022/05/12 06:04:39;;;;;;;7.88;3.00;;;;;;;17.15;100.00;101773.41;10546580;28;20376;-77
2022/05/12 06:09:41;;;;;;;7.15;3.13;;;;;;;17.65;100.00;101778.13;10523940;28;20035;-77
2022/05/12 06:14:42;;;;;;;4.70;2.42;;;;;;;18.10;100.00;101788.91;10540602;28;20031;-77
2022/05/12 06:19:43;;;;;;;4.15;1.73;;;;;;;18.14;100.00;101790.13;10505078;28;20028;-77
2022/05/12 06:24:43;;;;;;;4.05;2.20;;;;;;;18.44;100.00;101792.13;10505011;28;20036;-77
2022/05/12 06:29:44;;;;;;;2.08;1.88;;;;;;;18.79;100.00;101804.22;10539620;28;20072;-77
2022/05/12 06:34:46;;;;;;;2.88;1.95;;;;;;;19.11;100.00;101812.22;10522844;28;20094;-76
2022/05/12 06:39:46;;;;;;;2.38;1.75;;;;;;;19.25;100.00;101821.94;10539723;28;20081;-77
2022/05/12 06:44:47;;;;;;;5.82;2.70;;;;;;;19.59;100.00;101822.31;10523138;28;20165;-76
2022/05/12 06:49:51;;;;;;;4.60;2.00;;;;;;;19.76;100.00;101825.25;10540122;28;20143;-76
2022/05/12 06:54:51;;;;;;;2.83;2.38;;;;;;;20.09;100.00;101824.66;10541449;28;20115;-76
2022/05/12 06:59:52;;;;;;;3.33;2.50;;;;;;;20.62;100.00;101834.72;10542023;28;20047;-76
2022/05/12 07:04:53;;;;;;;6.90;2.28;;;;;;;20.95;100.00;101835.94;10547903;28;20062;-76
2022/05/12 07:09:54;;;;;;;4.97;2.30;;;;;;;21.23;100.00;101842.56;10546272;28;20044;-77
2022/05/12 07:14:56;;;;;;;3.50;1.63;;;;;;;21.30;100.00;101840.50;10530836;28;20111;-76
2022/05/12 07:26:35;;;;;;;1.80;1.70;;;;;;;21.42;100.00;101852.34;10547419;28;20510;-76
2022/05/12 07:35:58;;;;;;;1.92;1.83;;;;;;;22.27;100.00;101861.50;10545617;28;20075;-77
2022/05/12 07:40:58;;;;;;;1.25;1.25;;;;;;;22.39;100.00;101865.00;10547016;28;20028;-77
2022/05/12 07:45:59;;;;;;;1.75;1.38;;;;;;;22.47;100.00;101875.63;10529511;28;20430;-77
2022/05/12 07:50:59;;;;;;;2.78;1.65;;;;;;;22.81;100.00;101867.25;10530338;28;20048;-77
2022/05/12 07:56:00;;;;;;;7.03;2.63;;;;;;;23.04;100.00;101877.28;10535521;28;20035;-77
2022/05/12 08:01:00;;;;;;;1.67;1.58;;;;;;;23.17;100.00;101873.28;10554561;28;20361;-77
2022/05/12 08:06:01;;;;;;;2.28;1.95;;;;;;;23.41;100.00;101880.16;10549970;28;20039;-77
2022/05/12 08:11:02;;;;;;;2.50;1.75;;;;;;;23.39;100.00;101874.09;10527286;28;20181;-77
2022/05/12 08:16:04;;;;;;;1.83;1.73;;;;;;;23.88;100.00;101876.81;10493481;28;20379;-77
2022/05/12 08:21:05;;;;;;;2.42;2.20;;;;;;;24.25;100.00;101873.22;10527675;28;20352;-77
2022/05/12 08:26:05;;;;;;;3.45;2.40;;;;;;;24.42;100.00;101881.41;10526491;28;20028;-77
2022/05/12 08:31:06;;;;;;;10.20;2.70;;;;;;;24.30;100.00;101889.03;10544417;28;20378;-77
2022/05/12 08:36:07;;;;;;;1.83;1.67;;;;;;;24.31;100.00;101879.63;10509640;28;20040;-78
2022/05/12 08:41:24;;;;;;;2.80;2.13;;;;;;;24.15;100.00;101886.97;10545090;28;20048;-77
2022/05/12 08:46:36;;;;;;;;;;;;;;;24.23;100.00;101892.03;10512630;28;20060;-78
2022/05/12 08:51:36;;;;;;;3.70;2.05;;;;;;;24.16;100.00;101894.19;10544505;28;19954;-78
2022/05/12 08:56:37;;;;;;;1.33;1.33;;;;;;;24.51;100.00;101901.97;10544658;28;20043;-78
2022/05/12 09:01:53;;;;;;;1.38;1.38;;;;;;;24.00;91.85;101897.94;10542187;28;20052;-78
2022/05/12 09:06:59;;;;;;;6.63;1.73;;;;;;;23.92;93.35;101902.00;10510145;28;20028;-78
2022/05/12 09:12:18;;;;;;;1.40;1.30;;;;;;;24.13;100.00;101903.84;10543041;28;20028;-77
2022/05/12 09:17:20;;;;;;;1.85;1.75;;;;;;;24.51;96.33;101895.59;10525755;28;20061;-77
2022/05/12 09:22:26;;;;;;;1.42;1.40;;;;;;;25.01;96.14;101903.31;10541417;28;20466;-77
2022/05/12 09:27:32;;;;;;;;;;;;;;;25.23;99.17;101905.13;10542584;28;20028;-77
2022/05/12 09:32:34;;;;;;;3.72;1.98;;;;;;;25.19;82.39;101910.38;10542533;28;19982;-78
2022/05/12 09:37:36;;;;;;;1.83;1.67;;;;;;;25.28;93.87;101908.75;10542202;28;20107;-78
2022/05/12 09:42:39;;;;;;;7.38;1.98;;;;;;;25.14;84.10;101899.25;10524392;28;20024;-78
2022/05/12 09:47:40;;;;;;;1.92;1.83;;;;;;;25.80;92.30;101904.13;10542786;28;20140;-78
2022/05/12 09:52:40;;;;;;;1.77;1.67;;;;;;;25.80;86.81;101908.84;10524008;28;20036;-79
2022/05/12 09:57:49;;;;;;;2.30;2.10;;;;;;;26.35;87.27;101904.44;10541788;28;20043;-78
2022/05/12 10:08:24;;;;;;;3.05;2.03;;;;;;;26.09;70.65;101914.75;10513007;28;20032;-78
2022/05/12 10:13:45;;;;;;;2.70;1.95;;;;;;;25.61;71.73;101914.94;10523926;28;20028;-78
2022/05/12 10:18:48;;;;;;;5.18;1.20;;;;;;;25.22;78.70;101911.78;10512232;28;20040;-78
2022/05/12 10:24:02;;;;;;;2.67;1.85;;;;;;;25.04;75.73;101908.31;10549384;28;20032;-78
2022/05/12 10:29:21;;;;;;;5.55;1.83;;;;;;;25.11;66.13;101918.34;10550393;28;20421;-78
2022/05/12 10:34:59;;;;;;;1.83;1.55;;;;;;;25.25;85.11;101908.47;10544419;28;20537;-78
2022/05/12 10:40:15;;;;;;;1.38;1.27;;;;;;;24.59;77.23;101906.16;10532379;28;20464;-78
2022/05/12 10:45:59;;;;;;;1.55;1.17;;;;;;;23.53;77.49;101904.09;10555911;28;20123;-77
2022/05/12 10:51:02;;;;;;;1.65;1.33;;;;;;;22.39;80.62;101908.34;10535854;28;20377;-77
2022/05/12 10:56:08;;;;;;;2.97;1.45;;;;;;;22.71;78.48;101901.09;10555356;28;20463;-78
2022/05/12 11:01:19;;;;;;;2.90;1.90;;;;;;;24.78;70.47;101887.97;10552008;28;20077;-77
2022/05/12 11:06:23;;;;;;;2.95;1.23;;;;;;;25.64;65.30;101899.69;10514904;28;20032;-77
2022/05/12 11:11:26;;;;;;;2.60;1.35;;;;;;;24.73;67.07;101890.75;10529923;28;20028;-77
2022/05/12 11:16:40;;;;;;;1.30;1.13;;;;;;;25.12;62.78;101884.84;10530353;28;20426;-78
2022/05/12 11:22:01;;;;;;;3.85;1.92;;;;;;;24.10;65.52;101892.47;10548149;28;20357;-77
2022/05/12 11:27:10;;;;;;;3.05;1.17;;;;;;;24.21;59.64;101885.91;10548499;28;20047;-77
2022/05/12 11:32:39;;;;;;;1.98;1.55;;;;;;;24.61;59.56;101890.09;10531452;28;20020;-77
2022/05/12 11:37:43;;;;;;;6.70;1.08;;;;;;;24.69;70.02;101900.66;10530233;28;20127;-78
2022/05/12 11:48:22;;;;;;;2.77;1.43;;;;;;;22.40;66.12;101899.81;10530872;28;20056;-77
2022/05/12 11:53:27;;;;;;;1.40;1.30;;;;;;;23.34;59.56;101893.38;10546153;28;20456;-78
2022/05/12 11:58:47;;;;;;;2.83;1.80;;;;;;;24.24;61.14;101903.94;10544300;28;20043;-77
2022/05/12 12:03:53;;;;;;;3.40;1.30;;;;;;;23.07;59.00;101896.09;10544033;28;20066;-77
2022/05/12 12:08:53;;;;;;;3.47;1.27;;;;;;;23.67;55.45;101892.34;10546397;28;20371;-77
2022/05/12 12:13:59;;;;;;;1.20;1.20;;;;;;;23.66;57.00;101885.13;10546146;28;20024;-77
2022/05/12 12:19:01;;;;;;;2.13;1.30;;;;;;;25.00;60.12;101889.75;10527127;28;20048;-77
2022/05/12 12:24:13;;;;;;;2.10;1.88;;;;;;;23.52;62.70;101888.59;10545180;28;20024;-77
2022/05/12 12:29:17;;;;;;;1.75;1.15;;;;;;;23.49;57.15;101892.72;10527923;28;20050;-77
2022/05/12 12:34:21;;;;;;;1.20;1.20;;;;;;;23.56;56.35;101881.44;10526854;28;20044;-77
2022/05/12 12:39:42;;;;;;;10.48;2.10;;;;;;;24.56;50.14;101888.13;10528466;28;20035;-77
2022/05/12 12:44:43;;;;;;;1.70;1.60;;;;;;;24.77;51.15;101882.72;10512148;28;20028;-77
2022/05/12 12:50:08;;;;;;;1.33;1.23;;;;;;;25.44;55.13;101881.06;10509920;28;20054;-77
2022/05/12 13:00:59;;;;;;;1.25;1.25;;;;;;;25.08;45.68;101883.69;10543405;28;20114;-77
2022/05/12 13:06:15;;;;;;;6.40;1.45;;;;;;;25.15;45.88;101880.69;10544292;28;20066;-77
2022/05/12 13:11:18;;;;;;;2.42;2.00;;;;;;;24.87;43.57;101874.44;10510781;28;20020;-78
2022/05/12 13:16:21;;;;;;;1.45;1.35;;;;;;;24.79;47.79;101873.03;10543038;28;20038;-77
2022/05/12 13:21:31;;;;;;;6.15;2.08;;;;;;;24.35;44.58;101870.53;10524121;28;20050;-77
2022/05/12 13:26:32;;;;;;;1.13;1.10;;;;;;;24.65;47.15;101871.00;10525410;28;20081;-77
2022/05/12 13:31:35;;;;;;;1.85;1.75;;;;;;;24.67;42.22;101858.56;10525002;28;20074;-77
2022/05/12 13:36:41;;;;;;;2.80;1.35;;;;;;;24.29;44.22;101857.75;10524173;28;20035;-77
2022/05/12 13:41:46;;;;;;;1.70;1.60;;;;;;;23.99;45.21;101861.13;10548539;28;20040;-77
2022/05/12 13:46:49;;;;;;;2.20;1.73;;;;;;;23.72;46.19;101844.56;10514564;28;20503;-77
2022/05/12 13:51:54;;;;;;;4.50;1.25;;;;;;;23.55;43.02;101841.91;10525443;28;20032;-77
2022/05/12 13:57:31;;;;;;;2.00;1.10;;;;;;;23.58;42.56;101851.59;10507402;28;20044;-77
2022/05/12 14:02:34;;;;;;;1.47;1.30;;;;;;;23.60;43.19;101841.09;10523344;28;20039;-77
2022/05/12 14:23:24;;;;;;;1.55;1.45;;;;;;;22.65;44.00;101821.22;10394179;28;20041;-76
2022/05/12 14:28:24;;;;;;;5.25;2.20;;;;;;;22.57;45.91;101810.63;10415282;28;20040;-77
2022/05/12 14:33:26;;;;;;;1.80;1.50;;;;;;;22.45;43.20;101811.56;10415172;28;20061;-76
2022/05/12 14:38:27;;;;;;;11.20;2.63;;;;;;;22.23;44.15;101806.00;10396969;28;20424;-76
2022/05/12 14:43:27;;;;;;;3.90;2.05;;;;;;;22.25;44.58;101791.97;10397888;28;20053;-77
2022/05/12 14:48:28;;;;;;;2.90;2.53;;;;;;;21.95;43.72;101797.81;10413563;28;20076;-76
2022/05/12 14:53:28;;;;;;;3.35;1.63;;;;;;;21.83;44.54;101803.44;10381531;28;20037;-76
2022/05/12 14:58:29;;;;;;;4.95;1.67;;;;;;;21.81;43.66;101797.31;10396923;28;20029;-76
2022/05/12 15:03:31;;;;;;;2.35;1.75;;;;;;;21.58;42.40;101801.91;10364399;28;20470;-76
2022/05/12 15:08:31;;;;;;;3.17;2.00;;;;;;;21.42;42.77;101808.25;10380081;28;20057;-76
2022/05/12 15:13:31;;;;;;;1.92;1.40;;;;;;;21.29;42.42;101811.28;10396909;28;20524;-76
2022/05/12 15:18:32;;;;;;;5.57;1.92;;;;;;;21.20;43.32;101799.00;10414410;28;20120;-76
2022/05/12 15:23:33;;;;;;;5.38;1.65;;;;;;;21.11;42.46;101813.13;10367633;28;20026;-76
2022/05/12 15:28:33;;;;;;;3.85;2.75;;;;;;;20.85;44.60;101805.47;10422470;28;20530;-76
2022/05/12 15:33:34;;;;;;;3.15;1.88;;;;;;;20.70;45.91;101803.22;10421991;28;20053;-76
2022/05/12 15:38:34;;;;;;;1.58;1.48;;;;;;;20.49;45.96;101810.19;10419562;28;20061;-76
2022/05/12 15:43:34;;;;;;;1.75;1.25;;;;;;;20.21;44.81;101800.75;10403182;28;20128;-76
2022/05/12 15:48:35;;;;;;;2.40;1.63;;;;;;;19.96;46.72;101794.66;10420897;28;20033;-76
2022/05/12 15:53:35;;;;;;;2.40;1.58;;;;;;;19.67;46.32;101799.16;10420991;28;20056;-76
2022/05/12 15:58:36;;;;;;;7.35;2.38;;;;;;;19.59;48.20;101788.47;10423002;28;20037;-76
2022/05/12 16:03:36;;;;;;;2.08;1.58;;;;;;;19.44;49.85;101794.44;10407485;28;20144;-76
2022/05/12 16:08:36;;;;;;;3.13;1.52;;;;;;;19.26;48.90;101785.19;10420534;28;20115;-76
2022/05/12 16:13:38;;;;;;;1.55;1.45;;;;;;;18.99;49.58;101786.63;10419981;28;20533;-76
2022/05/12 16:18:38;;;;;;;5.35;2.40;;;;;;;18.56;49.89;101776.59;10419819;28;20042;-76
2022/05/12 16:23:39;;;;;;;3.00;1.85;;;;;;;18.05;50.80;101797.78;10419674;28;20033;-76
2022/05/12 16:28:40;;;;;;;5.25;1.65;;;;;;;17.44;52.66;101799.31;10419497;28;20033;-76
2022/05/12 16:33:41;;;;;;;1.65;1.55;;;;;;;17.30;52.80;101795.00;10384142;28;20468;-76
2022/05/12 16:38:43;;;;;;;2.75;1.38;;;;;;;17.11;52.87;101785.00;10418810;28;20464;-76
2022/05/12 16:43:44;;;;;;;15.43;3.67;;;;;;;17.13;52.84;101793.81;10419037;28;20069;-76
2022/05/12 16:48:44;;;;;;;4.30;1.67;;;;;;;16.95;52.40;101794.56;10400998;28;20029;-76
2022/05/12 16:53:45;;;;;;;9.88;2.75;;;;;;;16.95;52.52;101791.84;10418790;28;20127;-76
2022/05/12 16:58:45;;;;;;;2.83;1.77;;;;;;;16.89;50.91;101796.28;10417166;28;20140;-76
2022/05/12 17:03:45;;;;;;;1.25;1.15;;;;;;;16.66;48.23;101795.94;10400341;28;20037;-75
2022/05/12 17:08:46;;;;;;;3.35;1.75;;;;;;;16.47;47.98;101784.00;10417127;28;20059;-75
2022/05/12 17:13:47;;;;;;;4.30;1.50;;;;;;;16.45;48.42;101781.47;10417686;28;20084;-76
2022/05/12 17:18:47;;;;;;;2.97;1.77;;;;;;;16.41;49.41;101788.44;10416412;28;20124;-76
2022/05/12 17:23:49;;;;;;;10.52;1.38;;;;;;;16.20;49.66;101785.94;10416209;28;20040;-75
2022/05/12 17:28:49;;;;;;;2.20;1.42;;;;;;;16.05;50.49;101788.94;10399431;28;20056;-75
2022/05/12 17:33:50;;;;;;;1.25;1.05;;;;;;;16.02;51.29;101797.56;10416957;28;20044;-76
2022/05/12 17:38:51;;;;;;;3.25;2.42;;;;;;;15.92;50.78;101787.06;10382602;28;20505;-75
2022/05/12 17:43:54;;;;;;;1.13;1.02;;;;;;;15.83;51.37;101785.59;10382303;28;20033;-75
2022/05/12 17:48:56;;;;;;;2.33;1.85;;;;;;;15.70;51.71;101788.31;10416359;28;20125;-75
2022/05/12 17:53:57;;;;;;;6.47;3.53;;;;;;;15.50;53.33;101791.81;10398360;28;20476;-75
2022/05/12 17:58:57;;;;;;;6.15;3.25;;;;;;;15.41;54.32;101793.09;10414824;28;20034;-75
2022/05/12 18:03:58;;;;;;;2.97;2.13;;;;;;;15.32;55.56;101802.53;10415695;28;20044;-75
2022/05/12 18:09:00;;;;;;;3.30;2.35;;;;;;;15.31;55.25;101788.00;10382716;28;20045;-75
2022/05/12 18:14:00;;;;;;;4.10;1.98;;;;;;;15.21;57.28;101781.28;10381820;28;20053;-75
2022/05/12 18:19:01;;;;;;;2.88;1.08;;;;;;;15.16;58.13;101786.53;10414662;28;20365;-75
2022/05/12 18:24:01;;;;;;;1.60;1.20;;;;;;;15.05;58.53;101780.59;10421662;28;20044;-75
2022/05/12 18:29:02;;;;;;;1.42;1.33;;;;;;;14.92;58.90;101777.84;10390171;28;20065;-75
2022/05/12 18:34:03;;;;;;;4.00;1.63;;;;;;;14.68;61.18;101792.00;10422941;28;20034;-75
2022/05/12 18:39:04;;;;;;;9.43;2.97;;;;;;;14.60;61.83;101785.69;10418378;28;20037;-75
2022/05/12 18:44:04;;;;;;;4.22;2.53;;;;;;;14.58;62.00;101781.47;10415086;28;20044;-75
2022/05/12 18:49:05;;;;;;;10.80;2.30;;;;;;;14.43;62.96;101778.88;10386721;28;20065;-74
2022/05/12 18:54:05;;;;;;;9.75;2.13;;;;;;;14.38;62.64;101779.47;10423860;28;20041;-75
2022/05/12 18:59:06;;;;;;;7.30;1.90;;;;;;;14.25;63.96;101786.72;10426322;28;20029;-78
2022/05/12 19:04:07;;;;;;;8.02;2.50;;;;;;;14.19;64.24;101788.38;10424248;28;20508;-78
2022/05/12 19:09:07;;;;;;;4.65;2.47;;;;;;;14.18;63.85;101783.97;10405046;28;20112;-75
2022/05/12 19:14:07;;;;;;;3.05;2.22;;;;;;;14.05;65.12;101792.06;10422550;28;20524;-76
2022/05/12 19:19:08;;;;;;;4.80;2.33;;;;;;;14.02;64.54;101787.84;10403900;28;20033;-74
2022/05/12 19:24:09;;;;;;;12.30;4.00;;;;;;;13.93;64.68;101789.88;10401034;28;20111;-74
2022/05/12 19:29:09;;;;;;;6.32;2.35;;;;;;;13.80;66.53;101789.75;10418609;28;20044;-75
2022/05/12 19:34:10;;;;;;;5.88;1.77;;;;;;;13.67;67.48;101790.50;10419725;28;20037;-76
2022/05/12 19:39:11;;;;;;;3.05;1.75;;;;;;;13.67;66.76;101795.94;10380589;28;20044;-74
2022/05/12 19:44:11;;;;;;;2.20;1.80;;;;;;;13.62;66.48;101803.84;10401751;28;20025;-73
2022/05/12 19:49:12;;;;;;;2.17;1.98;;;;;;;13.45;68.72;101802.44;10418652;28;20080;-74
2022/05/12 19:54:12;;;;;;;7.32;1.65;;;;;;;13.39;68.33;101811.38;10419964;28;20044;-73
2022/05/12 19:59:13;;;;;;;4.50;1.70;;;;;;;13.41;67.28;101817.47;10418194;28;20031;-74
2022/05/12 20:04:13;;;;;;;9.93;1.65;;;;;;;13.32;68.05;101824.06;10402871;28;20436;-75
2022/05/12 20:09:14;;;;;;;2.95;2.10;;;;;;;13.18;69.03;101821.19;10402968;28;20038;-75
2022/05/12 20:14:15;;;;;;;8.65;2.13;;;;;;;13.15;69.22;101824.28;10420141;28;20061;-75
2022/05/12 20:19:16;;;;;;;4.25;1.60;;;;;;;13.19;68.27;101813.84;10420161;28;20096;-74
2022/05/12 20:24:16;;;;;;;5.78;1.35;;;;;;;13.09;68.68;101819.59;10377465;28;20123;-74
2022/05/12 20:29:17;;;;;;;9.00;2.63;;;;;;;13.04;69.46;101831.03;10378343;28;20040;-75
2022/05/12 20:34:18;;;;;;;1.30;1.30;;;;;;;13.03;69.90;101831.25;10379033;28;20042;-75
2022/05/12 20:39:18;;;;;;;1.42;1.35;;;;;;;12.95;71.02;101824.03;10361188;28;20025;-75
2022/05/12 20:44:19;;;;;;;3.90;2.33;;;;;;;13.04;69.83;101831.03;10361543;28;20444;-74
2022/05/12 20:49:19;;;;;;;8.75;2.58;;;;;;;12.94;70.70;101832.38;10379087;28;20029;-74
2022/05/12 20:54:19;;;;;;;1.70;1.60;;;;;;;12.90;71.07;101828.38;10379614;28;20148;-74
2022/05/12 20:59:20;;;;;;;3.38;1.60;;;;;;;12.75;73.79;101828.38;10360590;28;20084;-75
2022/05/12 21:04:22;;;;;;;8.40;1.80;;;;;;;12.74;73.24;101829.41;10378437;28;20465;-75
2022/05/12 21:09:22;;;;;;;4.63;1.85;;;;;;;12.75;72.28;101833.81;10377859;28;20064;-75
2022/05/12 21:14:22;;;;;;;3.20;1.90;;;;;;;12.71;72.11;101840.66;10378341;28;20464;-75
2022/05/12 21:19:23;;;;;;;5.32;2.30;;;;;;;12.63;74.38;101830.72;10376636;28;20038;-74
2022/05/12 21:24:23;;;;;;;5.80;3.20;;;;;;;12.53;76.55;101827.44;10377447;28;20061;-74
2022/05/12 21:29:24;;;;;;;4.63;2.72;;;;;;;12.47;78.09;101831.75;10378013;28;20373;-75
2022/05/12 21:34:25;;;;;;;8.07;2.88;;;;;;;12.49;75.70;101826.16;10361154;28;20110;-75
2022/05/12 21:39:26;;;;;;;11.13;3.10;;;;;;;12.35;79.36;101833.28;10359635;28;20026;-75
2022/05/12 21:44:27;;;;;;;8.43;3.15;;;;;;;12.33;80.26;101828.00;10382284;28;20109;-75
2022/05/12 21:49:28;;;;;;;5.57;3.20;;;;;;;12.23;82.23;101819.31;10385698;28;20121;-75
2022/05/12 21:54:28;;;;;;;12.05;2.97;;;;;;;12.39;80.98;101823.72;10379623;28;20113;-74
2022/05/12 22:04:48;;;;;;;3.15;2.70;;;;;;;12.55;81.93;101818.09;10375832;28;20038;-74
2022/05/12 22:09:48;;;;;;;14.18;4.40;;;;;;;12.70;80.57;101817.22;10375166;28;20480;-74
2022/05/12 22:14:51;;;;;;;10.57;2.33;;;;;;;12.71;81.22;101805.34;10375111;28;20053;-74
2022/05/12 22:19:51;;;;;;;6.68;3.05;;;;;;;12.73;80.76;101798.69;10374494;28;20469;-75
2022/05/12 22:24:51;;;;;;;15.88;4.05;;;;;;;12.78;80.78;101793.50;10357747;28;20034;-74
2022/05/12 22:29:52;;;;;;;20.92;4.55;;;;;;;12.79;80.14;101797.06;10374401;28;20045;-74
2022/05/12 22:34:52;;;;;;;11.27;3.45;;;;;;;12.78;79.28;101795.38;10374605;28;20384;-74
2022/05/12 22:39:53;;;;;;;15.80;3.65;;;;;;;12.87;78.24;101787.97;10356589;28;20046;-74
2022/05/12 22:44:53;;;;;;;4.78;2.97;;;;;;;12.84;78.56;101800.06;10375419;28;20030;-74
2022/05/12 22:49:53;;;;;;;3.50;2.63;;;;;;;12.84;77.81;101799.22;10375404;28;20041;-74
2022/05/12 22:54:54;;;;;;;6.53;2.97;;;;;;;12.83;77.93;101801.09;10386530;28;20026;-74
2022/05/12 22:59:55;;;;;;;9.48;4.10;;;;;;;12.89;77.45;101792.19;10389225;28;20034;-74
2022/05/12 23:04:55;;;;;;;7.63;3.25;;;;;;;12.83;79.39;101782.06;10390136;28;20041;-75
2022/05/12 23:09:56;;;;;;;15.18;3.67;;;;;;;12.86;79.45;101794.41;10378381;28;20069;-74
2022/05/12 23:14:56;;;;;;;10.13;4.15;;;;;;;12.80;81.34;101782.47;10358360;28;20481;-74
2022/05/12 23:25:24;;;;;;;19.88;3.83;;;;;;;12.78;83.16;101779.91;10343218;28;20042;-75
2022/05/12 23:30:25;;;;;;;12.48;4.75;;;;;;;12.76;84.48;101768.41;10373777;28;20037;-74
2022/05/12 23:35:26;;;;;;;19.25;5.00;;;;;;;12.80;84.86;101788.72;10372790;28;20049;-75
2022/05/12 23:40:26;;;;;;;23.70;5.25;;;;;;;12.75;87.03;101779.47;10355599;28;20088;-75
2022/05/12 23:45:27;;;;;;;10.48;3.60;;;;;;;12.79;87.60;101788.91;10360759;28;20044;-74
2022/05/12 23:50:27;;;;;;;16.27;5.15;;;;;;;12.88;87.01;101785.03;10380079;28;20397;-74
2022/05/12 23:55:28;;;;;;;15.70;4.22;;;;;;;12.82;88.99;101765.94;10380188;28;20432;-74
